createdAt,value
2018-08-14T00:01:33.440Z,1.73
2018-08-14T00:04:04.612Z,1.60
2018-08-14T00:06:37.018Z,2.00
2018-08-14T00:09:07.413Z,1.80
2018-08-14T00:11:37.840Z,1.63
2018-08-14T00:14:08.229Z,2.40
2018-08-14T00:16:38.617Z,2.13
2018-08-14T00:19:09.017Z,1.70
2018-08-14T00:21:39.405Z,2.17
2018-08-14T00:24:10.547Z,1.97
2018-08-14T00:26:41.734Z,1.83
2018-08-14T00:29:14.157Z,1.57
2018-08-14T00:31:44.549Z,1.80
2018-08-14T00:34:34.328Z,2.03
2018-08-14T00:37:24.735Z,1.50
2018-08-14T00:39:55.149Z,2.13
2018-08-14T00:42:33.723Z,2.00
2018-08-14T00:45:04.897Z,1.80
2018-08-14T00:47:35.283Z,1.83
2018-08-14T00:50:05.600Z,2.20
2018-08-14T00:52:36.021Z,1.43
2018-08-14T00:55:06.415Z,1.80
2018-08-14T00:57:36.803Z,1.90
2018-08-14T01:00:07.420Z,1.77
2018-08-14T01:02:38.570Z,1.67
2018-08-14T01:05:09.736Z,2.43
2018-08-14T01:07:40.152Z,1.93
2018-08-14T01:10:10.548Z,1.83
2018-08-14T01:12:40.930Z,1.87
2018-08-14T01:15:12.356Z,1.90
2018-08-14T01:17:43.509Z,2.20
2018-08-14T01:20:13.896Z,2.43
2018-08-14T01:22:44.324Z,2.30
2018-08-14T01:25:14.901Z,1.87
2018-08-14T01:27:45.292Z,2.30
2018-08-14T01:30:16.471Z,2.50
2018-08-14T01:32:46.852Z,2.13
2018-08-14T01:35:17.246Z,2.00
2018-08-14T01:37:49.696Z,2.10
2018-08-14T01:40:20.008Z,2.00
2018-08-14T01:42:51.150Z,1.63
2018-08-14T01:45:22.335Z,2.33
2018-08-14T01:47:54.762Z,2.20
2018-08-14T01:50:25.155Z,2.10
2018-08-14T01:52:55.576Z,2.57
2018-08-14T01:55:25.972Z,1.97
2018-08-14T01:57:56.350Z,2.17
2018-08-14T02:00:26.768Z,2.30
2018-08-14T02:02:57.161Z,2.33
2018-08-14T02:05:29.615Z,1.80
2018-08-14T02:08:00.041Z,1.70
2018-08-14T02:10:30.412Z,2.30
2018-08-14T02:13:00.827Z,2.40
2018-08-14T02:15:32.187Z,2.13
2018-08-14T02:18:02.580Z,2.13
2018-08-14T02:20:32.961Z,1.90
2018-08-14T02:23:03.379Z,2.10
2018-08-14T02:25:33.758Z,1.60
2018-08-14T02:28:04.166Z,2.27
2018-08-14T02:30:35.352Z,2.53
2018-08-14T02:33:09.843Z,2.27
2018-08-14T02:35:40.421Z,2.37
2018-08-14T02:38:10.832Z,2.23
2018-08-14T02:40:44.285Z,2.40
2018-08-14T02:43:15.449Z,2.80
2018-08-14T02:45:45.880Z,1.70
2018-08-14T02:48:16.282Z,2.27
2018-08-14T02:50:47.434Z,2.40
2018-08-14T02:53:18.634Z,2.23
2018-08-14T02:55:49.036Z,2.60
2018-08-14T02:58:19.352Z,2.50
2018-08-14T03:00:49.760Z,2.47
2018-08-14T03:03:20.856Z,2.60
2018-08-14T03:05:51.441Z,3.20
2018-08-14T03:08:21.861Z,2.17
2018-08-14T03:10:52.997Z,2.93
2018-08-14T03:13:24.088Z,2.70
2018-08-14T03:15:54.501Z,2.10
2018-08-14T03:18:26.938Z,3.17
2018-08-14T03:20:58.085Z,2.77
2018-08-14T03:26:17.954Z,2.40
2018-08-14T03:28:48.299Z,2.60
2018-08-14T03:31:18.684Z,2.90
2018-08-14T03:33:56.404Z,2.90
2018-08-14T03:36:26.775Z,3.17
2018-08-14T03:38:57.158Z,2.47
2018-08-14T03:41:27.562Z,3.10
2018-08-14T03:44:20.138Z,2.77
2018-08-14T03:46:50.546Z,2.93
2018-08-14T03:49:20.937Z,2.63
2018-08-14T03:51:51.333Z,2.63
2018-08-14T03:54:22.505Z,2.83
2018-08-14T03:56:52.902Z,3.00
2018-08-14T03:59:23.271Z,2.57
2018-08-14T04:01:53.674Z,2.70
2018-08-14T04:04:24.840Z,2.73
2018-08-14T04:06:55.388Z,2.93
2018-08-14T04:09:32.123Z,2.63
2018-08-14T04:12:04.301Z,2.70
2018-08-14T04:14:35.338Z,2.73
2018-08-14T04:17:05.765Z,3.03
2018-08-14T04:19:36.155Z,2.80
2018-08-14T04:22:06.473Z,2.93
2018-08-14T04:24:36.892Z,2.83
2018-08-14T04:27:07.273Z,3.10
2018-08-14T04:29:37.846Z,2.97
2018-08-14T04:32:27.363Z,2.83
2018-08-14T04:34:57.745Z,2.97
2018-08-14T04:37:32.255Z,2.33
2018-08-14T04:40:07.737Z,2.97
2018-08-14T04:42:38.161Z,3.13
2018-08-14T04:45:08.545Z,3.07
2018-08-14T04:47:38.928Z,3.20
2018-08-14T04:50:09.341Z,3.40
2018-08-14T04:52:39.741Z,3.13
2018-08-14T04:55:16.290Z,3.17
2018-08-14T04:57:46.673Z,3.17
2018-08-14T05:00:17.059Z,3.77
2018-08-14T05:02:47.477Z,3.43
2018-08-14T05:05:17.865Z,3.37
2018-08-14T05:07:49.023Z,3.67
2018-08-14T05:10:19.432Z,3.33
2018-08-14T05:12:49.812Z,3.70
2018-08-14T05:15:22.255Z,3.60
2018-08-14T05:17:52.661Z,4.10
2018-08-14T05:20:23.058Z,3.70
2018-08-14T05:22:53.454Z,3.63
2018-08-14T05:25:23.880Z,3.27
2018-08-14T05:27:54.276Z,3.87
2018-08-14T05:30:25.445Z,3.70
2018-08-14T05:32:55.844Z,3.80
2018-08-14T05:35:26.990Z,4.17
2018-08-14T05:37:57.380Z,4.13
2018-08-14T05:40:27.769Z,3.77
2018-08-14T05:42:58.165Z,3.97
2018-08-14T05:45:29.494Z,4.10
2018-08-14T05:47:59.891Z,3.80
2018-08-14T05:50:30.275Z,3.83
2018-08-14T05:53:01.528Z,4.30
2018-08-14T05:55:31.868Z,4.43
2018-08-14T05:58:02.248Z,3.80
2018-08-14T06:00:32.567Z,4.10
2018-08-14T06:03:02.963Z,3.77
2018-08-14T06:05:37.466Z,4.30
2018-08-14T06:08:07.920Z,4.07
2018-08-14T06:10:38.284Z,4.40
2018-08-14T06:13:08.674Z,4.10
2018-08-14T06:15:39.085Z,4.40
2018-08-14T06:18:09.499Z,4.00
2018-08-14T06:20:39.893Z,3.90
2018-08-14T06:23:10.292Z,4.17
2018-08-14T06:25:41.741Z,3.87
2018-08-14T06:28:13.154Z,3.90
2018-08-14T06:30:43.528Z,4.00
2018-08-14T06:33:13.947Z,4.00
2018-08-14T06:35:45.538Z,4.17
2018-08-14T06:38:16.679Z,3.83
2018-08-14T06:40:47.078Z,3.93
2018-08-14T06:43:17.456Z,3.90
2018-08-14T06:45:47.831Z,3.70
2018-08-14T06:48:18.232Z,3.83
2018-08-14T06:50:51.695Z,4.20
2018-08-14T06:53:22.088Z,4.23
2018-08-14T06:55:52.520Z,3.93
2018-08-14T06:58:22.901Z,4.43
2018-08-14T07:00:53.279Z,4.47
2018-08-14T07:03:23.685Z,4.07
2018-08-14T07:05:54.082Z,4.23
2018-08-14T07:08:24.659Z,4.13
2018-08-14T07:10:55.069Z,4.00
2018-08-14T07:13:26.485Z,4.53
2018-08-14T07:15:56.881Z,4.13
2018-08-14T07:18:27.269Z,4.63
2018-08-14T07:20:57.590Z,4.07
2018-08-14T07:23:32.003Z,4.53
2018-08-14T07:26:06.508Z,5.30
2018-08-14T07:28:36.900Z,5.33
2018-08-14T07:31:09.324Z,5.07
2018-08-14T07:33:43.831Z,5.07
2018-08-14T07:36:14.225Z,5.73
2018-08-14T07:41:34.035Z,5.20
2018-08-14T07:44:05.189Z,6.13
2018-08-14T07:46:35.586Z,5.57
2018-08-14T07:49:05.993Z,6.43
2018-08-14T07:51:36.309Z,7.63
2018-08-14T07:54:12.840Z,7.03
2018-08-14T07:56:43.219Z,6.17
2018-08-14T07:59:13.604Z,6.67
2018-08-14T08:01:44.030Z,7.30
2018-08-14T08:04:14.421Z,7.97
2018-08-14T08:06:44.813Z,8.10
2018-08-14T08:09:34.594Z,8.70
2018-08-14T08:12:05.032Z,8.63
2018-08-14T08:14:35.386Z,7.60
2018-08-14T08:17:05.803Z,7.60
2018-08-14T08:19:36.122Z,8.97
2018-08-14T08:22:06.496Z,8.63
2018-08-14T08:24:36.981Z,7.20
2018-08-14T08:27:08.072Z,7.90
2018-08-14T08:29:38.470Z,7.73
2018-08-14T08:32:08.881Z,7.60
2018-08-14T08:34:39.356Z,7.90
2018-08-14T08:37:09.688Z,7.70
2018-08-14T08:39:42.256Z,7.63
2018-08-14T08:42:12.650Z,7.30
2018-08-14T08:44:43.812Z,7.60
2018-08-14T08:47:14.927Z,7.53
2018-08-14T08:49:45.304Z,6.13
2018-08-14T08:52:16.713Z,6.40
2018-08-14T08:54:47.126Z,6.10
2018-08-14T08:57:17.526Z,6.43
2018-08-14T09:00:10.106Z,6.43
2018-08-14T09:02:40.554Z,6.60
2018-08-14T09:05:10.871Z,6.83
2018-08-14T09:07:43.010Z,7.47
2018-08-14T09:10:13.388Z,7.30
2018-08-14T09:12:43.769Z,7.57
2018-08-14T09:15:14.169Z,7.20
2018-08-14T09:18:03.944Z,7.10
2018-08-14T09:20:34.347Z,7.40
2018-08-14T09:23:04.741Z,7.30
2018-08-14T09:25:37.163Z,7.53
2018-08-14T09:28:07.583Z,7.03
2018-08-14T09:30:38.227Z,7.77
2018-08-14T09:33:09.495Z,7.93
2018-08-14T09:35:40.862Z,7.43
2018-08-14T09:38:11.258Z,7.20
2018-08-14T09:40:48.923Z,7.97
2018-08-14T09:43:19.315Z,7.97
2018-08-14T09:45:49.713Z,8.00
2018-08-14T09:48:20.126Z,7.40
2018-08-14T09:50:50.505Z,7.80
2018-08-14T09:53:21.929Z,7.73
2018-08-14T09:55:52.344Z,6.97
2018-08-14T09:58:22.741Z,8.63
2018-08-14T10:00:53.121Z,6.97
2018-08-14T10:03:23.537Z,7.17
2018-08-14T10:05:53.908Z,6.40
2018-08-14T10:08:24.300Z,6.57
2018-08-14T10:10:54.642Z,7.43
2018-08-14T10:13:25.028Z,6.13
2018-08-14T10:15:59.491Z,6.30
2018-08-14T10:18:29.938Z,5.80
2018-08-14T10:21:00.330Z,6.83
2018-08-14T10:23:30.711Z,6.90
2018-08-14T10:26:01.128Z,6.63
2018-08-14T10:28:31.576Z,6.33
2018-08-14T10:31:01.913Z,5.97
2018-08-14T10:33:32.318Z,6.27
2018-08-14T10:36:02.714Z,6.63
2018-08-14T10:38:33.110Z,6.10
2018-08-14T10:41:03.521Z,6.10
2018-08-14T10:43:35.965Z,6.10
2018-08-14T10:46:06.347Z,5.73
2018-08-14T10:48:36.772Z,5.87
2018-08-14T10:51:07.082Z,5.63
2018-08-14T10:53:38.156Z,5.87
2018-08-14T10:56:08.560Z,5.17
2018-08-14T10:58:38.896Z,5.37
2018-08-14T11:01:29.673Z,5.63
2018-08-14T11:04:21.474Z,5.60
2018-08-14T11:06:52.569Z,5.50
2018-08-14T11:09:22.892Z,5.77
2018-08-14T11:11:53.287Z,5.30
2018-08-14T11:14:23.686Z,4.87
2018-08-14T11:16:54.070Z,5.13
2018-08-14T11:19:24.456Z,4.73
2018-08-14T11:21:56.918Z,5.83
2018-08-14T11:24:27.317Z,5.63
2018-08-14T11:26:57.702Z,5.90
2018-08-14T11:29:35.420Z,6.10
2018-08-14T11:32:05.810Z,6.33
2018-08-14T11:34:39.258Z,6.07
2018-08-14T11:37:09.850Z,6.53
2018-08-14T11:39:40.269Z,5.73
2018-08-14T11:42:10.649Z,6.30
2018-08-14T11:44:41.065Z,6.10
2018-08-14T11:47:11.634Z,6.27
2018-08-14T11:49:42.020Z,5.37
2018-08-14T11:52:12.444Z,5.30
2018-08-14T11:54:42.844Z,4.73
2018-08-14T11:57:32.657Z,4.87
2018-08-14T12:00:03.020Z,4.30
2018-08-14T12:05:24.853Z,3.60
2018-08-14T12:07:56.012Z,3.30
2018-08-14T12:10:26.338Z,3.73
2018-08-14T12:12:56.791Z,3.87
2018-08-14T12:15:27.892Z,3.53
2018-08-14T12:17:58.980Z,3.60
2018-08-14T12:20:31.424Z,3.27
2018-08-14T12:23:01.811Z,3.20
2018-08-14T12:25:32.190Z,3.03
2018-08-14T12:28:02.621Z,3.20
2018-08-14T12:30:33.007Z,3.07
2018-08-14T12:33:04.159Z,3.50
2018-08-14T12:35:34.585Z,3.07
2018-08-14T12:38:04.962Z,3.37
2018-08-14T12:40:37.387Z,3.33
2018-08-14T12:43:09.567Z,2.70
2018-08-14T12:45:40.715Z,3.20
2018-08-14T12:48:11.101Z,2.80
2018-08-14T12:50:41.521Z,2.60
2018-08-14T12:53:11.908Z,2.80
2018-08-14T12:55:42.341Z,2.37
2018-08-14T12:58:12.736Z,2.70
2018-08-14T13:00:43.133Z,2.70
2018-08-14T13:03:13.527Z,2.97
2018-08-14T13:05:45.987Z,2.93
2018-08-14T13:08:16.313Z,2.90
2018-08-14T13:10:46.636Z,2.70
2018-08-14T13:13:17.037Z,2.57
2018-08-14T13:15:47.603Z,2.73
2018-08-14T13:18:17.974Z,2.70
2018-08-14T13:20:48.402Z,3.00
2018-08-14T13:23:18.773Z,3.03
2018-08-14T13:25:49.166Z,3.10
2018-08-14T13:28:19.578Z,2.63
2018-08-14T13:30:49.967Z,2.57
2018-08-14T13:33:20.352Z,2.73
2018-08-14T13:35:51.532Z,2.70
2018-08-14T13:38:21.905Z,2.67
2018-08-14T13:40:52.293Z,2.60
2018-08-14T13:43:22.702Z,2.63
2018-08-14T13:45:53.097Z,2.70
2018-08-14T13:48:23.413Z,2.13
2018-08-14T13:50:53.757Z,2.50
2018-08-14T13:53:24.187Z,2.77
2018-08-14T13:55:54.531Z,2.27
2018-08-14T13:58:24.959Z,2.17
2018-08-14T14:00:55.349Z,2.63
2018-08-14T14:03:25.745Z,2.80
2018-08-14T14:06:17.589Z,2.80
2018-08-14T14:08:47.987Z,2.77
2018-08-14T14:11:19.038Z,2.53
2018-08-14T14:13:56.768Z,2.70
2018-08-14T14:16:27.184Z,2.80
2018-08-14T14:18:57.560Z,2.57
2018-08-14T14:21:27.980Z,2.40
2018-08-14T14:23:58.359Z,2.60
2018-08-14T14:26:28.755Z,2.53
2018-08-14T14:28:59.168Z,2.40
2018-08-14T14:31:29.560Z,2.50
2018-08-14T14:33:59.953Z,2.67
2018-08-14T14:36:30.365Z,2.33
2018-08-14T14:39:00.748Z,2.27
2018-08-14T14:41:31.884Z,2.60
2018-08-14T14:44:02.303Z,2.33
2018-08-14T14:46:32.694Z,2.43
2018-08-14T14:49:03.090Z,2.83
2018-08-14T14:51:33.525Z,2.70
2018-08-14T14:54:04.009Z,2.37
2018-08-14T14:56:34.381Z,2.53
2018-08-14T14:59:04.734Z,2.33
2018-08-14T15:01:35.138Z,2.50
2018-08-14T15:04:06.469Z,2.27
2018-08-14T15:06:37.653Z,2.30
2018-08-14T15:09:27.404Z,2.17
2018-08-14T15:11:57.809Z,2.27
2018-08-14T15:14:29.140Z,2.30
2018-08-14T15:17:00.199Z,2.10
2018-08-14T15:19:30.606Z,2.23
2018-08-14T15:22:00.988Z,1.93
2018-08-14T15:24:31.300Z,2.13
2018-08-14T15:27:01.714Z,2.00
2018-08-14T15:29:32.091Z,1.80
2018-08-14T15:32:02.485Z,2.10
2018-08-14T15:34:32.898Z,2.03
2018-08-14T15:37:04.293Z,1.90
2018-08-14T15:39:54.076Z,2.20
2018-08-14T15:42:25.501Z,2.63
2018-08-14T15:44:55.902Z,2.10
2018-08-14T15:47:27.095Z,2.00
2018-08-14T15:49:57.479Z,2.37
2018-08-14T15:52:28.635Z,2.40
2018-08-14T15:54:59.067Z,1.90
2018-08-14T15:57:29.432Z,2.40
2018-08-14T15:59:59.809Z,2.37
2018-08-14T16:02:30.236Z,2.03
2018-08-14T16:05:03.345Z,2.30
2018-08-14T16:07:33.740Z,2.20
2018-08-14T16:10:04.155Z,2.23
2018-08-14T16:12:36.653Z,1.97
2018-08-14T16:17:57.012Z,2.80
2018-08-14T16:20:30.468Z,2.70
2018-08-14T16:23:00.893Z,2.07
2018-08-14T16:25:31.269Z,2.80
2018-08-14T16:28:01.648Z,2.60
2018-08-14T16:30:32.803Z,2.10
2018-08-14T16:33:03.190Z,2.53
2018-08-14T16:35:33.575Z,2.30
2018-08-14T16:38:03.982Z,1.87
2018-08-14T16:40:34.408Z,1.97
2018-08-14T16:43:04.757Z,2.50
2018-08-14T16:45:36.173Z,2.43
2018-08-14T16:48:06.565Z,2.77
2018-08-14T16:50:36.949Z,2.60
2018-08-14T16:53:07.350Z,2.23
2018-08-14T16:55:37.667Z,2.33
2018-08-14T16:58:08.747Z,1.80
2018-08-14T17:00:39.147Z,2.60
2018-08-14T17:03:09.536Z,2.60
2018-08-14T17:05:39.927Z,2.17
2018-08-14T17:08:12.394Z,2.13
2018-08-14T17:10:42.800Z,2.37
2018-08-14T17:13:15.010Z,1.93
2018-08-14T17:15:45.401Z,2.00
2018-08-14T17:18:15.788Z,2.53
2018-08-14T17:20:45.587Z,2.20
2018-08-14T17:23:15.875Z,2.37
2018-08-14T17:25:46.255Z,2.73
2018-08-14T17:28:16.636Z,2.50
2018-08-14T17:30:47.041Z,2.33
2018-08-14T17:33:19.984Z,2.67
2018-08-14T17:35:50.364Z,2.00
2018-08-14T17:38:20.814Z,2.00
2018-08-14T17:40:51.939Z,1.83
2018-08-14T17:43:22.337Z,2.47
2018-08-14T17:45:52.759Z,2.00
2018-08-14T17:48:24.948Z,2.30
2018-08-14T17:50:55.335Z,1.90
2018-08-14T17:53:28.466Z,2.20
2018-08-14T17:55:59.619Z,2.33
2018-08-14T17:58:30.020Z,2.03
2018-08-14T18:01:00.433Z,2.30
2018-08-14T18:03:30.763Z,2.23
2018-08-14T18:06:05.516Z,1.90
2018-08-14T18:08:35.913Z,1.90
2018-08-14T18:11:06.291Z,2.33
2018-08-14T18:13:36.678Z,2.40
2018-08-14T18:16:07.871Z,2.00
2018-08-14T18:18:40.311Z,1.93
2018-08-14T18:21:14.149Z,2.27
2018-08-14T18:23:47.596Z,1.93
2018-08-14T18:26:17.979Z,1.77
2018-08-14T18:28:48.336Z,2.00
2018-08-14T18:31:18.656Z,2.10
2018-08-14T18:33:50.079Z,1.93
2018-08-14T18:36:20.546Z,2.50
2018-08-14T18:38:53.985Z,1.93
2018-08-14T18:41:24.374Z,1.90
2018-08-14T18:43:54.802Z,1.80
2018-08-14T18:46:25.190Z,2.53
2018-08-14T18:48:55.751Z,2.33
2018-08-14T18:51:26.159Z,2.20
2018-08-14T18:53:56.545Z,1.60
2018-08-14T18:56:29.636Z,2.17
2018-08-14T18:59:00.038Z,2.43
2018-08-14T19:01:30.445Z,1.67
2018-08-14T19:04:00.844Z,2.00
2018-08-14T19:06:35.355Z,2.00
2018-08-14T19:09:09.640Z,2.03
2018-08-14T19:11:40.806Z,1.70
2018-08-14T19:14:11.402Z,1.67
2018-08-14T19:16:41.813Z,1.80
2018-08-14T19:19:12.276Z,1.80
2018-08-14T19:21:42.611Z,1.87
2018-08-14T19:24:13.022Z,1.83
2018-08-14T19:26:43.595Z,2.00
2018-08-14T19:29:14.025Z,1.73
2018-08-14T19:31:44.408Z,1.87
2018-08-14T19:34:14.788Z,1.90
2018-08-14T19:36:45.250Z,1.93
2018-08-14T19:39:15.588Z,2.00
2018-08-14T19:41:46.732Z,2.40
2018-08-14T19:44:17.163Z,2.20
2018-08-14T19:46:48.381Z,2.00
2018-08-14T19:49:18.726Z,2.10
2018-08-14T19:51:49.147Z,1.60
2018-08-14T19:54:20.310Z,2.00
2018-08-14T19:56:51.460Z,2.17
2018-08-14T20:02:10.655Z,1.63
2018-08-14T20:04:41.074Z,1.83
2018-08-14T20:07:14.456Z,1.60
2018-08-14T20:09:47.604Z,2.10
2018-08-14T20:12:17.987Z,2.30
2018-08-14T20:14:48.397Z,1.90
2018-08-14T20:17:19.568Z,1.87
2018-08-14T20:19:49.973Z,2.00
2018-08-14T20:22:23.945Z,2.20
2018-08-14T20:24:54.338Z,1.90
2018-08-14T20:27:24.733Z,2.00
2018-08-14T20:29:55.136Z,1.80
2018-08-14T20:32:25.534Z,2.13
2018-08-14T20:35:01.047Z,1.77
2018-08-14T20:37:31.436Z,2.40
2018-08-14T20:40:01.832Z,2.30
2018-08-14T20:42:32.177Z,2.43
2018-08-14T20:45:02.561Z,1.97
2018-08-14T20:47:32.968Z,2.00
2018-08-14T20:50:04.087Z,2.00
2018-08-14T20:52:34.486Z,2.00
2018-08-14T20:55:06.928Z,2.33
2018-08-14T20:57:37.352Z,1.97
2018-08-14T21:00:07.748Z,2.10
2018-08-14T21:02:38.086Z,2.10
2018-08-14T21:05:09.284Z,2.17
2018-08-14T21:07:39.612Z,2.00
2018-08-14T21:10:32.191Z,2.10
2018-08-14T21:13:03.611Z,1.90
2018-08-14T21:15:54.415Z,2.17
2018-08-14T21:18:24.993Z,2.17
2018-08-14T21:20:56.137Z,2.30
2018-08-14T21:23:27.256Z,2.00
2018-08-14T21:25:57.682Z,2.70
2018-08-14T21:28:28.034Z,2.03
2018-08-14T21:30:59.211Z,2.43
2018-08-14T21:33:29.594Z,1.90
2018-08-14T21:35:59.977Z,2.00
2018-08-14T21:38:34.497Z,2.07
2018-08-14T21:41:08.973Z,2.07
2018-08-14T21:43:40.165Z,2.00
2018-08-14T21:46:10.547Z,2.23
2018-08-14T21:48:41.709Z,1.83
2018-08-14T21:51:12.133Z,1.83
2018-08-14T21:53:44.242Z,1.90
2018-08-14T21:56:36.072Z,2.47
2018-08-14T21:59:06.469Z,2.10
2018-08-14T22:01:36.869Z,2.33
2018-08-14T22:04:07.294Z,1.67
2018-08-14T22:06:38.439Z,1.70
2018-08-14T22:09:08.823Z,2.50
2018-08-14T22:11:42.301Z,2.30
2018-08-14T22:14:12.692Z,2.00
2018-08-14T22:16:43.851Z,2.20
2018-08-14T22:19:14.275Z,2.47
2018-08-14T22:21:45.439Z,2.13
2018-08-14T22:24:15.759Z,1.90
2018-08-14T22:26:46.177Z,2.20
2018-08-14T22:29:16.584Z,2.50
2018-08-14T22:31:47.750Z,1.80
2018-08-14T22:34:18.169Z,1.87
2018-08-14T22:36:49.323Z,2.10
2018-08-14T22:39:19.715Z,1.90
2018-08-14T22:41:50.133Z,2.00
2018-08-14T22:44:20.451Z,2.00
2018-08-14T22:46:51.028Z,2.00
2018-08-14T22:49:21.453Z,2.47
2018-08-14T22:51:51.861Z,2.60
2018-08-14T22:54:23.284Z,1.90
2018-08-14T22:56:53.689Z,2.17
2018-08-14T22:59:30.226Z,2.13
2018-08-14T23:02:00.659Z,2.37
2018-08-14T23:04:31.053Z,2.27
2018-08-14T23:07:01.448Z,2.57
2018-08-14T23:09:33.884Z,2.50
2018-08-14T23:12:04.232Z,2.47
2018-08-14T23:14:34.632Z,2.27
2018-08-14T23:17:05.818Z,1.80
2018-08-14T23:19:57.363Z,1.93
2018-08-14T23:22:27.771Z,2.20
2018-08-14T23:24:59.186Z,1.93
2018-08-14T23:27:29.577Z,2.30
2018-08-14T23:30:00.011Z,2.10
2018-08-14T23:32:30.341Z,2.10
2018-08-14T23:35:01.498Z,2.03
2018-08-14T23:37:32.673Z,2.10
2018-08-14T23:40:03.081Z,1.83
2018-08-14T23:42:33.487Z,2.27
2018-08-14T23:45:04.674Z,2.40
2018-08-14T23:47:35.054Z,2.50
2018-08-14T23:50:05.457Z,2.10
2018-08-14T23:52:35.912Z,2.13
2018-08-14T23:55:07.066Z,1.83
2018-08-14T23:57:37.445Z,2.10
